Kagoshima Airport
RJFK : now visible

Airfield :











YOU CAN JOIN US ON...

 
LOGIN :

Register | Disclaimer

   EN    FR    IT 

 









Legend :    VFR   Marginal VFR   IFR   Intensive IFR   Very Intensive IFR
Visi :
Ceiling :
>= 8 km
>= 3000ft
5 to 8 km
1000 to 3000 ft
1500m to 5 km
500 to 1000 ft
800 to 1500m
200 to 500 ft
< 800m
< 200 ft
Symbols :   Thunderstorms  Fog  Heavy snow  Heavy precipitations  Wind > 20 kt







- Airport Elevation : 906 ft
- IATA code : KOJ


RJFK - Kagoshima

CURRENT METAR :
  • 260700Z 13008KT 090V160 CAVOK 26/05 Q1017

EXPIRED METARs :
  • 260600Z 12009KT 080V170 CAVOK 27/06 Q1017 RMK A3005 VOLCANIC ASH CLOUD S
  • 260500Z 14011KT CAVOK 27/05 Q1018 RMK A3007

TAF TAF RJFK
Valid from the 26 at 06:00 until the 27 at 12:00 UTC


260511Z 2606/2712 16010KT CAVOK
BECMG 2610/2612 09005KT
BECMG 2700/2703 17010KT
RJJJ FIR / Asia



MET'MAP, your aeronautical weather chart ! - Copyright ORBIFLY December 2007 - Disclaimer

ORBIFLY MET'MAP TEAM :

Programming & Development : Alexandra Zaïnal
Concept & Development : Baudouin d'Aumeries
Co-Development & Prog : Marc-Olivier Méhu
Technical & hardware support : Manuel Goepfert

Contact : metmap@orbifly.com




SOURCES & CREDITS :

   NOAA       Earth
Advisory